createdAt,value
2022-08-11T00:01:25.874Z,21.50
2022-08-11T00:03:59.347Z,21.50
2022-08-11T00:06:27.372Z,21.50
2022-08-11T00:08:54.565Z,21.40
2022-08-11T00:11:21.968Z,21.40
2022-08-11T00:13:53.844Z,21.40
2022-08-11T00:16:24.765Z,21.40
2022-08-11T00:18:52.933Z,21.30
2022-08-11T00:21:20.741Z,21.30
2022-08-11T00:24:08.547Z,21.30
2022-08-11T00:26:38.249Z,21.30
2022-08-11T00:29:09.877Z,21.20
2022-08-11T00:31:36.854Z,21.20
2022-08-11T00:34:04.727Z,21.20
2022-08-11T00:36:50.176Z,21.10
2022-08-11T00:39:19.415Z,21.10
2022-08-11T00:41:58.281Z,21.10
2022-08-11T00:44:43.719Z,21.00
2022-08-11T00:47:13.518Z,20.90
2022-08-11T00:49:45.240Z,20.90
2022-08-11T00:52:17.319Z,20.80
2022-08-11T00:54:49.974Z,20.80
2022-08-11T00:57:36.903Z,20.80
2022-08-11T01:00:18.862Z,20.70
2022-08-11T01:03:03.852Z,20.70
2022-08-11T01:05:49.989Z,20.70
2022-08-11T01:08:35.584Z,20.60
2022-08-11T01:11:02.644Z,20.50
2022-08-11T01:13:48.367Z,20.50
2022-08-11T01:16:24.381Z,20.50
2022-08-11T01:18:51.123Z,20.40
2022-08-11T01:21:23.746Z,20.40
2022-08-11T01:24:13.340Z,20.40
2022-08-11T01:27:00.416Z,20.40
2022-08-11T01:29:27.211Z,20.30
2022-08-11T01:31:57.176Z,20.20
2022-08-11T01:34:24.967Z,20.20
2022-08-11T01:37:03.860Z,20.20
2022-08-11T01:39:30.666Z,20.10
2022-08-11T01:42:47.526Z,20.10
2022-08-11T01:45:20.280Z,20.10
2022-08-11T01:48:02.431Z,20.10
2022-08-11T01:50:46.319Z,20.10
2022-08-11T01:53:35.595Z,20.10
2022-08-11T01:56:02.603Z,20.00
2022-08-11T01:58:43.489Z,20.10
2022-08-11T02:01:11.280Z,20.10
2022-08-11T02:03:51.160Z,20.00
2022-08-11T02:06:42.441Z,20.00
2022-08-11T02:09:24.419Z,19.90
2022-08-11T02:11:54.195Z,19.90
2022-08-11T02:14:24.501Z,19.80
2022-08-11T02:16:55.411Z,19.70
2022-08-11T02:19:42.395Z,19.70
2022-08-11T02:22:49.726Z,19.60
2022-08-11T02:25:22.569Z,19.60
2022-08-11T02:28:01.135Z,19.60
2022-08-11T02:30:32.475Z,19.60
2022-08-11T02:33:24.664Z,19.50
2022-08-11T02:36:20.857Z,19.50
2022-08-11T02:39:03.583Z,19.40
2022-08-11T02:42:01.249Z,19.40
2022-08-11T02:44:55.278Z,19.30
2022-08-11T02:47:38.182Z,19.30
2022-08-11T02:50:20.836Z,19.30
2022-08-11T02:52:52.479Z,19.30
2022-08-11T02:55:56.668Z,19.30
2022-08-11T02:58:27.235Z,19.20
2022-08-11T03:01:06.233Z,19.20
2022-08-11T03:03:46.867Z,19.20
2022-08-11T03:06:24.364Z,19.10
2022-08-11T03:09:13.995Z,19.10
2022-08-11T03:12:16.546Z,19.10
2022-08-11T03:15:14.339Z,19.00
2022-08-11T03:17:47.543Z,19.00
2022-08-11T03:20:14.215Z,19.00
2022-08-11T03:23:01.742Z,18.90
2022-08-11T03:25:51.729Z,18.90
2022-08-11T03:28:18.403Z,18.90
2022-08-11T03:30:58.881Z,18.90
2022-08-11T03:33:47.461Z,18.80
2022-08-11T03:36:27.202Z,18.70
2022-08-11T03:39:00.164Z,18.70
2022-08-11T03:42:01.433Z,18.70
2022-08-11T03:44:43.419Z,18.70
2022-08-11T03:47:25.599Z,18.70
2022-08-11T03:50:15.105Z,18.60
2022-08-11T03:52:50.228Z,18.60
2022-08-11T03:55:49.109Z,18.60
2022-08-11T03:58:41.921Z,18.60
2022-08-11T04:01:15.914Z,18.60
2022-08-11T04:03:57.732Z,18.50
2022-08-11T04:06:38.573Z,18.50
2022-08-11T04:09:23.762Z,18.40
2022-08-11T04:12:14.789Z,18.40
2022-08-11T04:15:26.464Z,18.40
2022-08-11T04:18:02.294Z,18.40
2022-08-11T04:20:28.943Z,18.40
2022-08-11T04:24:13.219Z,18.40
2022-08-11T04:26:19.543Z,18.40
2022-08-11T04:29:03.392Z,18.40
2022-08-11T04:31:52.826Z,18.40
2022-08-11T04:34:34.895Z,18.40
2022-08-11T04:37:34.257Z,18.40
2022-08-11T04:40:03.916Z,18.40
2022-08-11T04:43:08.225Z,18.40
2022-08-11T04:45:56.219Z,18.50
2022-08-11T04:49:06.690Z,18.40
2022-08-11T04:51:55.260Z,18.50
2022-08-11T04:54:55.982Z,18.50
2022-08-11T04:57:46.415Z,18.50
2022-08-11T05:00:32.493Z,18.70
2022-08-11T05:03:02.271Z,18.90
2022-08-11T05:05:31.942Z,19.20
2022-08-11T05:08:23.898Z,19.50
2022-08-11T05:10:59.904Z,19.70
2022-08-11T05:13:52.453Z,20.00
2022-08-11T05:16:40.566Z,20.20
2022-08-11T05:19:25.754Z,20.50
2022-08-11T05:22:15.238Z,20.70
2022-08-11T05:25:07.243Z,21.00
2022-08-11T05:27:57.242Z,21.20
2022-08-11T05:30:46.927Z,21.30
2022-08-11T05:33:52.858Z,21.40
2022-08-11T05:36:36.268Z,21.60
2022-08-11T05:39:36.169Z,21.70
2022-08-11T05:42:30.231Z,21.90
2022-08-11T05:46:02.326Z,22.00
2022-08-11T05:48:35.528Z,22.20
2022-08-11T05:51:25.817Z,22.40
2022-08-11T05:54:28.397Z,22.60
2022-08-11T05:57:00.003Z,22.70
2022-08-11T05:59:30.638Z,22.90
2022-08-11T06:02:02.073Z,23.00
2022-08-11T06:04:29.171Z,23.20
2022-08-11T06:06:57.128Z,23.20
2022-08-11T06:09:26.388Z,23.20
2022-08-11T06:11:54.459Z,23.20
2022-08-11T06:14:22.363Z,23.20
2022-08-11T06:16:49.786Z,23.20
2022-08-11T06:19:17.105Z,23.20
2022-08-11T06:21:45.252Z,23.10
2022-08-11T06:24:13.169Z,23.00
2022-08-11T06:27:09.185Z,23.00
2022-08-11T06:29:48.109Z,22.90
2022-08-11T06:32:24.726Z,22.90
2022-08-11T06:35:10.339Z,22.90
2022-08-11T06:37:59.022Z,22.80
2022-08-11T06:40:27.438Z,22.80
2022-08-11T06:43:17.446Z,22.70
2022-08-11T06:45:53.242Z,22.70
2022-08-11T06:48:21.798Z,22.60
2022-08-11T06:51:11.440Z,22.60
2022-08-11T06:53:57.595Z,22.50
2022-08-11T06:57:25.933Z,22.50
2022-08-11T07:00:00.607Z,22.50
2022-08-11T07:02:36.345Z,22.50
2022-08-11T07:05:21.008Z,22.50
2022-08-11T07:08:34.853Z,22.60
2022-08-11T07:11:40.014Z,22.60
2022-08-11T07:14:26.053Z,22.70
2022-08-11T07:16:53.320Z,22.70
2022-08-11T07:19:40.860Z,22.70
2022-08-11T07:22:28.762Z,22.70
2022-08-11T07:25:16.891Z,22.80
2022-08-11T07:28:04.558Z,22.90
2022-08-11T07:30:32.483Z,23.00
2022-08-11T07:33:00.758Z,23.00
2022-08-11T07:35:38.458Z,23.10
2022-08-11T07:38:07.286Z,23.20
2022-08-11T07:40:35.549Z,23.20
2022-08-11T07:43:03.557Z,23.30
2022-08-11T07:45:49.989Z,23.30
2022-08-11T07:48:35.695Z,23.30
2022-08-11T07:51:21.031Z,23.30
2022-08-11T07:53:58.392Z,23.50
2022-08-11T07:56:55.328Z,23.50
2022-08-11T08:00:04.277Z,23.60
2022-08-11T08:02:58.307Z,23.60
2022-08-11T08:05:44.358Z,23.60
2022-08-11T08:08:29.886Z,23.70
2022-08-11T08:11:15.508Z,23.70
2022-08-11T08:14:01.532Z,23.80
2022-08-11T08:16:49.328Z,23.90
2022-08-11T08:19:17.143Z,23.90
2022-08-11T08:21:45.416Z,24.00
2022-08-11T08:24:12.599Z,24.10
2022-08-11T08:26:58.535Z,24.20
2022-08-11T08:29:44.931Z,24.30
2022-08-11T08:32:12.240Z,24.30
2022-08-11T08:34:40.258Z,24.30
2022-08-11T08:37:15.857Z,24.40
2022-08-11T08:39:54.280Z,24.40
2022-08-11T08:42:25.231Z,24.50
2022-08-11T08:44:54.522Z,24.60
2022-08-11T08:47:42.605Z,24.70
2022-08-11T08:50:16.634Z,24.70
2022-08-11T08:52:50.601Z,24.70
2022-08-11T08:55:18.611Z,24.70
2022-08-11T08:57:46.256Z,24.70
2022-08-11T09:00:19.230Z,24.80
2022-08-11T09:02:49.586Z,24.90
2022-08-11T09:05:17.341Z,24.90
2022-08-11T09:07:47.364Z,24.90
2022-08-11T09:10:17.287Z,24.90
2022-08-11T09:12:44.629Z,24.90
2022-08-11T09:15:12.293Z,25.00
2022-08-11T09:17:41.297Z,25.10
2022-08-11T09:20:09.545Z,25.10
2022-08-11T09:23:29.563Z,25.20
2022-08-11T09:26:03.009Z,25.40
2022-08-11T09:28:30.824Z,25.50
2022-08-11T09:31:01.001Z,25.70
2022-08-11T09:33:28.377Z,25.80
2022-08-11T09:35:55.216Z,25.90
2022-08-11T09:38:49.268Z,25.90
2022-08-11T09:41:17.146Z,25.90
2022-08-11T09:44:04.312Z,26.00
2022-08-11T09:46:32.729Z,26.00
2022-08-11T09:49:00.406Z,26.10
2022-08-11T09:51:31.068Z,26.10
2022-08-11T09:54:03.611Z,26.20
2022-08-11T09:56:50.097Z,26.30
2022-08-11T09:59:18.377Z,26.40
2022-08-11T10:01:49.463Z,26.40
2022-08-11T10:04:17.824Z,26.40
2022-08-11T10:07:04.429Z,26.40
2022-08-11T10:09:46.786Z,26.50
2022-08-11T10:12:21.852Z,26.50
2022-08-11T10:15:08.807Z,26.60
2022-08-11T10:17:36.726Z,26.60
2022-08-11T10:20:05.871Z,26.60
2022-08-11T10:22:52.834Z,26.60
2022-08-11T10:25:39.150Z,26.60
2022-08-11T10:28:32.660Z,26.70
2022-08-11T10:31:13.903Z,26.70
2022-08-11T10:34:00.073Z,26.80
2022-08-11T10:36:28.490Z,27.00
2022-08-11T10:38:56.230Z,27.10
2022-08-11T10:42:06.536Z,27.00
2022-08-11T10:44:29.446Z,27.00
2022-08-11T10:47:14.755Z,27.00
2022-08-11T10:49:41.858Z,27.00
2022-08-11T10:52:27.319Z,27.00
2022-08-11T10:55:12.814Z,27.00
2022-08-11T10:58:04.214Z,27.10
2022-08-11T11:00:32.843Z,27.10
2022-08-11T11:03:22.241Z,27.10
2022-08-11T11:06:28.901Z,27.20
2022-08-11T11:08:57.665Z,27.30
2022-08-11T11:11:46.170Z,27.20
2022-08-11T11:14:34.867Z,27.20
2022-08-11T11:17:11.666Z,27.20
2022-08-11T11:19:39.067Z,27.40
2022-08-11T11:22:24.384Z,27.60
2022-08-11T11:25:09.764Z,27.50
2022-08-11T11:27:55.388Z,27.50
2022-08-11T11:30:24.613Z,27.50
2022-08-11T11:33:11.327Z,27.60
2022-08-11T11:35:46.019Z,27.60
2022-08-11T11:38:13.931Z,27.70
2022-08-11T11:40:41.411Z,27.80
2022-08-11T11:43:08.349Z,27.80
2022-08-11T11:45:35.236Z,27.80
2022-08-11T11:48:02.281Z,27.80
2022-08-11T11:50:31.621Z,27.80
2022-08-11T11:53:00.297Z,27.80
2022-08-11T11:55:27.867Z,27.70
2022-08-11T11:58:15.992Z,27.70
2022-08-11T12:01:06.675Z,27.70
2022-08-11T12:03:34.365Z,27.70
2022-08-11T12:06:02.413Z,27.80
2022-08-11T12:08:29.197Z,27.80
2022-08-11T12:11:16.666Z,27.90
2022-08-11T12:13:45.214Z,27.90
2022-08-11T12:16:33.990Z,28.00
2022-08-11T12:19:00.929Z,28.00
2022-08-11T12:21:28.619Z,28.10
2022-08-11T12:24:18.775Z,28.10
2022-08-11T12:27:14.989Z,28.00
2022-08-11T12:29:35.261Z,28.00
2022-08-11T12:32:02.267Z,28.00
2022-08-11T12:34:31.452Z,28.00
2022-08-11T12:36:59.508Z,27.90
2022-08-11T12:40:16.373Z,27.80
2022-08-11T12:43:03.903Z,27.90
2022-08-11T12:45:31.502Z,28.10
2022-08-11T12:48:58.893Z,28.10
2022-08-11T12:52:01.487Z,28.20
2022-08-11T12:54:27.376Z,28.30
2022-08-11T12:57:27.585Z,28.30
2022-08-11T13:00:25.781Z,28.20
2022-08-11T13:03:12.283Z,28.20
2022-08-11T13:05:44.641Z,28.30
2022-08-11T13:08:15.294Z,28.40
2022-08-11T13:11:01.284Z,28.40
2022-08-11T13:13:55.226Z,28.40
2022-08-11T13:16:15.647Z,28.30
2022-08-11T13:18:42.914Z,28.30
2022-08-11T13:21:10.269Z,28.20
2022-08-11T13:23:38.032Z,28.30
2022-08-11T13:26:05.054Z,28.40
2022-08-11T13:28:31.781Z,28.40
2022-08-11T13:31:15.157Z,28.50
2022-08-11T13:33:44.630Z,28.40
2022-08-11T13:36:11.925Z,28.40
2022-08-11T13:38:42.844Z,28.40
2022-08-11T13:41:29.833Z,28.40
2022-08-11T13:43:56.875Z,28.40
2022-08-11T13:46:24.415Z,28.40
2022-08-11T13:49:00.850Z,28.50
2022-08-11T13:51:34.519Z,28.50
2022-08-11T13:54:12.130Z,28.40
2022-08-11T13:56:39.892Z,28.40
2022-08-11T13:59:10.243Z,28.40
2022-08-11T14:02:22.405Z,28.40
2022-08-11T14:04:46.724Z,28.50
2022-08-11T14:07:14.594Z,28.50
2022-08-11T14:09:43.131Z,28.60
2022-08-11T14:12:31.707Z,28.70
2022-08-11T14:15:14.377Z,28.70
2022-08-11T14:17:47.981Z,28.70
2022-08-11T14:20:38.583Z,28.80
2022-08-11T14:23:04.261Z,28.70
2022-08-11T14:26:00.766Z,28.70
2022-08-11T14:28:31.184Z,28.80
2022-08-11T14:31:01.840Z,28.80
2022-08-11T14:33:58.187Z,28.80
2022-08-11T14:36:17.580Z,28.70
2022-08-11T14:38:44.369Z,28.60
2022-08-11T14:41:29.812Z,28.70
2022-08-11T14:44:15.262Z,28.70
2022-08-11T14:47:01.390Z,28.70
2022-08-11T14:49:28.783Z,28.70
2022-08-11T14:51:57.028Z,28.70
2022-08-11T14:54:47.595Z,28.80
2022-08-11T14:57:14.467Z,28.80
2022-08-11T14:59:42.174Z,28.80
2022-08-11T15:02:28.121Z,28.80
2022-08-11T15:04:56.064Z,28.80
2022-08-11T15:07:29.833Z,28.70
2022-08-11T15:10:14.227Z,28.70
2022-08-11T15:12:44.023Z,28.70
2022-08-11T15:15:29.913Z,28.80
2022-08-11T15:17:58.105Z,28.80
2022-08-11T15:20:44.849Z,28.80
2022-08-11T15:23:30.185Z,28.70
2022-08-11T15:25:59.335Z,28.80
2022-08-11T15:28:50.674Z,28.90
2022-08-11T15:31:36.482Z,28.90
2022-08-11T15:34:30.520Z,28.90
2022-08-11T15:37:16.956Z,28.80
2022-08-11T15:40:31.475Z,28.80
2022-08-11T15:43:18.413Z,28.80
2022-08-11T15:45:50.055Z,28.80
2022-08-11T15:48:18.989Z,28.90
2022-08-11T15:50:53.819Z,28.90
2022-08-11T15:53:41.527Z,28.90
2022-08-11T15:56:09.141Z,28.90
2022-08-11T15:59:41.176Z,28.90
2022-08-11T16:02:03.926Z,28.90
2022-08-11T16:04:31.291Z,28.90
2022-08-11T16:07:01.528Z,29.00
2022-08-11T16:09:37.578Z,29.00
2022-08-11T16:12:32.676Z,29.00
2022-08-11T16:15:22.808Z,29.00
2022-08-11T16:17:53.913Z,29.00
2022-08-11T16:20:22.290Z,29.10
2022-08-11T16:23:00.464Z,29.10
2022-08-11T16:27:04.430Z,29.20
2022-08-11T16:28:16.809Z,29.20
2022-08-11T16:30:46.272Z,29.20
2022-08-11T16:33:48.755Z,29.30
2022-08-11T16:36:18.805Z,29.30
2022-08-11T16:38:46.098Z,29.40
2022-08-11T16:41:14.551Z,29.60
2022-08-11T16:44:02.391Z,29.90
2022-08-11T16:46:48.809Z,30.20
2022-08-11T16:49:21.781Z,30.70
2022-08-11T16:51:48.473Z,31.00
2022-08-11T16:54:15.248Z,31.30
2022-08-11T16:56:45.192Z,31.60
2022-08-11T16:59:18.457Z,31.80
2022-08-11T17:01:48.058Z,32.10
2022-08-11T17:04:46.711Z,32.20
2022-08-11T17:07:50.055Z,32.30
2022-08-11T17:10:52.825Z,32.30
2022-08-11T17:13:42.631Z,32.30
2022-08-11T17:16:12.747Z,32.30
2022-08-11T17:18:46.572Z,32.40
2022-08-11T17:21:16.273Z,32.50
2022-08-11T17:23:49.786Z,32.50
2022-08-11T17:26:53.626Z,32.50
2022-08-11T17:29:21.477Z,32.50
2022-08-11T17:32:07.910Z,32.50
2022-08-11T17:34:54.047Z,32.50
2022-08-11T17:37:24.614Z,32.50
2022-08-11T17:39:52.184Z,32.60
2022-08-11T17:42:37.662Z,32.60
2022-08-11T17:45:24.288Z,32.50
2022-08-11T17:48:09.740Z,32.50
2022-08-11T17:50:36.719Z,32.30
2022-08-11T17:53:22.932Z,32.00
2022-08-11T17:56:09.329Z,31.60
2022-08-11T17:58:54.706Z,31.20
2022-08-11T18:01:21.909Z,30.70
2022-08-11T18:03:57.544Z,30.40
2022-08-11T18:06:34.076Z,30.10
2022-08-11T18:09:21.931Z,29.80
2022-08-11T18:12:11.828Z,29.70
2022-08-11T18:14:58.582Z,29.50
2022-08-11T18:17:44.041Z,29.30
2022-08-11T18:20:29.310Z,29.10
2022-08-11T18:23:15.164Z,29.00
2022-08-11T18:26:02.579Z,28.80
2022-08-11T18:28:52.171Z,28.70
2022-08-11T18:31:38.764Z,28.60
2022-08-11T18:34:25.787Z,28.50
2022-08-11T18:37:22.031Z,28.40
2022-08-11T18:40:14.969Z,28.30
2022-08-11T18:43:01.031Z,28.20
2022-08-11T18:45:46.723Z,28.10
2022-08-11T18:48:39.436Z,28.00
2022-08-11T18:51:31.247Z,28.00
2022-08-11T18:54:25.738Z,27.90
2022-08-11T18:57:12.768Z,27.80
2022-08-11T18:59:59.764Z,27.70
2022-08-11T19:02:49.297Z,27.60
2022-08-11T19:06:05.924Z,27.50
2022-08-11T19:08:46.207Z,27.40
2022-08-11T19:11:31.807Z,27.30
2022-08-11T19:14:17.615Z,27.20
2022-08-11T19:17:03.592Z,27.10
2022-08-11T19:19:50.304Z,27.00
2022-08-11T19:22:36.527Z,27.00
2022-08-11T19:25:25.517Z,26.90
2022-08-11T19:28:12.279Z,26.80
2022-08-11T19:31:11.893Z,26.70
2022-08-11T19:34:39.274Z,26.70
2022-08-11T19:38:14.378Z,26.60
2022-08-11T19:41:16.910Z,26.50
2022-08-11T19:59:27.201Z,26.20
2022-08-11T20:02:56.328Z,26.10
2022-08-11T20:05:55.486Z,26.00
2022-08-11T20:08:45.016Z,26.00
2022-08-11T20:14:30.840Z,25.90
2022-08-11T20:17:17.563Z,25.90
2022-08-11T20:20:03.092Z,25.80
2022-08-11T20:22:49.133Z,25.80
2022-08-11T20:25:35.414Z,25.70
2022-08-11T20:28:22.160Z,25.60
2022-08-11T20:31:08.799Z,25.60
2022-08-11T20:33:54.965Z,25.50
2022-08-11T20:36:40.296Z,25.50
2022-08-11T20:39:25.415Z,25.40
2022-08-11T20:42:12.658Z,25.40
2022-08-11T20:44:58.679Z,25.30
2022-08-11T20:50:50.919Z,25.30
2022-08-11T20:53:40.519Z,25.20
2022-08-11T20:56:28.779Z,25.10
2022-08-11T20:59:21.778Z,25.10
2022-08-11T21:02:13.510Z,25.00
2022-08-11T21:05:00.269Z,24.90
2022-08-11T21:07:55.644Z,24.90
2022-08-11T21:10:46.873Z,24.90
2022-08-11T21:13:33.215Z,24.90
2022-08-11T21:16:26.402Z,24.80
2022-08-11T21:19:14.644Z,24.80
2022-08-11T21:22:00.367Z,24.70
2022-08-11T21:24:49.261Z,24.70
2022-08-11T21:27:35.952Z,24.70
2022-08-11T21:30:21.490Z,24.60
2022-08-11T21:33:07.054Z,24.50
2022-08-11T21:35:52.490Z,24.50
2022-08-11T21:38:37.737Z,24.40
2022-08-11T21:41:23.658Z,24.30
2022-08-11T21:44:09.794Z,24.30
2022-08-11T21:46:56.833Z,24.20
2022-08-11T21:49:43.712Z,24.20
2022-08-11T21:52:29.239Z,24.10
2022-08-11T21:55:15.237Z,24.10
2022-08-11T21:58:02.168Z,24.00
2022-08-11T22:00:47.514Z,24.00
2022-08-11T22:03:34.457Z,23.90
2022-08-11T22:06:36.459Z,23.80
2022-08-11T22:09:21.925Z,23.80
2022-08-11T22:12:34.352Z,23.70
2022-08-11T22:15:13.148Z,23.70
2022-08-11T22:17:58.736Z,23.60
2022-08-11T22:20:45.235Z,23.60
2022-08-11T22:23:36.206Z,23.50
2022-08-11T22:26:22.390Z,23.50
2022-08-11T22:29:08.151Z,23.40
2022-08-11T22:31:54.506Z,23.40
2022-08-11T22:34:40.663Z,23.30
2022-08-11T22:37:39.100Z,23.30
2022-08-11T22:40:25.059Z,23.20
2022-08-11T22:43:10.381Z,23.20
2022-08-11T22:45:56.390Z,23.20
2022-08-11T22:48:43.935Z,23.10
2022-08-11T22:51:29.832Z,23.10
2022-08-11T22:54:15.838Z,23.10
2022-08-11T22:57:01.242Z,23.00
2022-08-11T22:59:46.573Z,23.00
2022-08-11T23:02:32.024Z,22.90
2022-08-11T23:05:17.974Z,22.90
2022-08-11T23:08:03.522Z,22.80
2022-08-11T23:10:49.565Z,22.80
2022-08-11T23:13:34.839Z,22.80
2022-08-11T23:16:20.213Z,22.70
2022-08-11T23:19:05.737Z,22.70
2022-08-11T23:21:52.448Z,22.70
2022-08-11T23:24:38.670Z,22.70
2022-08-11T23:27:25.090Z,22.70
2022-08-11T23:30:12.799Z,22.70
2022-08-11T23:32:58.882Z,22.60
2022-08-11T23:35:54.011Z,22.50
2022-08-11T23:38:43.611Z,22.50
2022-08-11T23:41:29.017Z,22.40
2022-08-11T23:44:14.359Z,22.30
2022-08-11T23:47:00.409Z,22.40
2022-08-11T23:49:45.853Z,22.30
2022-08-11T23:52:31.965Z,22.30
2022-08-11T23:55:17.340Z,22.20
2022-08-11T23:58:02.873Z,22.20
